Highland, Louisiana
Current Conditions -  °F | °C
As of 9:35 AM on Wednesday 26 Nov 2014 (Local Time) from KHEZ Reporting Station
Clear Clear  
Wind Chill: 55°   Ceiling: Unl
Heat Index: 55°   Visibility: 10mi
Dew Point: 39°   Wind: 12mph
Humidity: 54%   Direction: 200°SSW
Pressure: 30.22"   Gusts: NA
Location:  31.835°N, 91.3655°W
Report Text: KHEZ 261535Z AUTO 20010KT 150V220 10SM CLR 13/04 A3022 RMK AO1
Loading
Personal Weather Stations






























Interactive Weather Map New forecast layout! Learn more

10-Day Weather Forecast

Advertisements
Track Severe Weather on mobile